Main page
METAR-TAF:

METAR-TAF

Airports :

Chongqing, China

Chongqing Jiangbei International Airport

latitude: 29-31N, longitude: 106-29E, elevation: 351 m

Current weather observation

The report was made 53 minutes ago, at 13:00 UTC
Wind 2 kt from variable directions
Temperature 18°C
Humidity 64%
Pressure 1016 hPa
Visibility: 6000 m

METAR: ZUCK 281300Z VRB01MPS 6000 NSC 18/11 Q1016 NOSIG

Time: 21:53 (13:53 UTC)

Forecast

The report was made 4 hours and 49 minutes ago, at 09:04 UTC
Forecast valid from 28 at 12 UTC to 29 at 12 UTC
Wind 6 kt from the North/Northeast
Visibility: 5000 m
Scattered clouds at a height of 5000 ft
haze
Temporary
from 29 at 06 UTC to 29 at 12 UTC
Visibility: 3500 m
Scattered clouds at a height of 5000 ft
Few clouds at a height of 5000 ft, Cumulonimbus.
light rain showers, mist

TAF: ZUCK 280904Z 2812/2912 03003MPS 5000 HZ SCT050 TX19/2908Z TN15/2822Z TEMPO 2906/2912 3500 -SHRA BR SCT050 FEW050CB

Weather observations and forecasts of more than 4000 airports (METAR and TAF reports).

The available stations are represented by yellow and red dots on the map.

Hover mouse over dot to see the name of the station.

Then click to see weather observations and forecasts.

To change the map : click on the green buttons with a black cross to zoom in, on the green button with a dash to zoom out, or on the green arrows for adjacent maps.


METAR-TAF: